AKDT,Max TemperatureF,Mean TemperatureF,Min TemperatureF,Max Dew PointF,MeanDew PointF,Min DewpointF,Max Humidity, Mean Humidity, Min Humidity, Max Sea Level PressureIn, Mean Sea Level PressureIn, Min Sea Level PressureIn, Max VisibilityMiles, Mean VisibilityMiles, Min VisibilityMiles, Max Wind SpeedMPH, Mean Wind SpeedMPH, Max Gust SpeedMPH,PrecipitationIn, CloudCover, Events, WindDirDegrees
2013-10-1,51,48,44,48,46,41,100,91,76,29.94,29.71,29.49,10,10,1,7,1,,0.00,8,,37
2013-10-2,55,48,41,48,45,39,100,87,63,30.12,30.07,29.95,10,10,4,8,1,,0.00,7,,111
2013-10-3,53,47,41,45,41,39,100,77,58,30.10,29.89,29.67,10,10,10,23,7,32,0.00,7,,125
2013-10-4,51,48,44,46,44,41,93,85,71,29.77,29.68,29.64,10,10,9,16,7,23,0.00,8,,134
2013-10-5,51,46,42,46,45,43,100,91,76,29.99,29.92,29.77,10,9,1,9,2,,0.00,8,,36
2013-10-6,50,42,33,45,41,32,100,91,76,29.88,29.67,29.57,10,7,0,12,5,,0.00,5,,15
2013-10-7,53,42,32,43,37,30,100,88,58,30.01,29.74,29.56,10,10,6,7,1,,0.00,2,,286
2013-10-8,50,41,32,45,40,30,100,88,81,30.08,29.91,29.43,10,10,9,26,7,37,0.00,6,,131
2013-10-9,50,47,44,46,43,37,93,86,71,29.72,29.45,29.21,10,9,5,33,16,40,0.00,7,,152
2013-10-10,53,48,42,46,44,39,100,86,62,29.97,29.88,29.73,10,10,4,10,6,,0.00,7,,128
2013-10-11,51,48,44,46,45,43,100,91,82,30.19,30.07,29.96,10,9,2,10,6,,0.00,8,,118
2013-10-12,50,46,42,46,44,43,100,92,82,30.22,30.20,30.18,10,10,8,7,2,,0.00,8,,102
2013-10-13,51,46,42,48,44,41,100,90,76,30.19,30.09,30.00,10,10,5,21,4,29,0.00,8,,85
2013-10-14,51,48,42,48,47,43,100,90,71,30.33,30.17,30.02,10,10,3,16,7,23,0.00,7,,143
2013-10-15,48,46,44,46,44,43,93,92,87,30.43,30.40,30.33,10,10,3,10,5,,0.00,8,,119
2013-10-16,50,46,41,45,43,39,100,92,82,30.42,30.39,30.35,10,8,0,7,2,,0.00,8,,318
2013-10-17,46,44,42,43,41,39,100,89,76,30.34,30.31,30.29,10,10,10,7,1,,0.00,8,,90
2013-10-18,50,47,44,45,43,41,93,87,81,30.31,30.22,30.14,10,10,3,16,7,21,0.00,8,,131
2013-10-19,53,50,48,48,47,45,94,86,76,30.14,30.06,30.00,10,10,6,17,10,21,0.00,8,,144
2013-10-20,51,48,44,50,46,41,100,88,76,30.11,30.04,29.99,10,10,3,10,4,,0.00,7,,152
2013-10-21,51,42,32,45,39,30,100,88,62,30.23,30.16,30.11,10,8,0,7,2,,0.00,2,,308
2013-10-22,42,36,30,39,37,28,100,95,87,30.25,30.18,30.04,10,7,0,5,1,,0.00,7,,336
2013-10-23,51,45,39,48,42,37,100,91,82,30.04,29.84,29.69,10,9,2,20,6,28,0.00,8,,24
2013-10-24,51,48,44,45,43,39,100,89,76,30.14,30.08,29.92,10,10,3,9,3,18,0.00,7,,155
2013-10-25,50,46,42,48,45,43,100,91,87,30.14,30.10,30.06,10,10,1,14,4,20,0.00,8,,128
2013-10-26,51,42,33,46,42,32,100,86,71,30.58,30.28,30.04,10,10,5,16,7,16,0.00,4,,202
2013-10-27,46,39,32,43,37,30,100,92,76,30.60,30.52,30.41,10,10,5,5,0,,0.00,3,,13
2013-10-28,50,46,42,43,39,36,93,82,58,30.40,30.12,29.81,10,10,10,15,3,24,0.00,8,,31
2013-10-29,48,46,44,45,43,39,93,88,76,29.84,29.81,29.77,10,10,6,21,10,26,0.00,7,,126
2013-10-30,48,46,44,45,43,39,100,89,76,29.77,29.53,29.39,10,10,8,13,6,,0.00,8,,123
2013-10-31,46,44,42,45,42,37,100,88,81,29.90,29.74,29.53,10,10,5,12,6,17,0.00,8,,138